createdAt,value
2023-02-15T00:02:00.107Z,7.95
2023-02-15T00:04:46.357Z,9.20
2023-02-15T00:07:15.725Z,7.28
2023-02-15T00:09:43.125Z,7.88
2023-02-15T00:12:10.959Z,8.40
2023-02-15T00:14:38.085Z,7.22
2023-02-15T00:17:05.919Z,7.32
2023-02-15T00:19:32.896Z,6.80
2023-02-15T00:22:00.319Z,7.38
2023-02-15T00:24:27.820Z,7.28
2023-02-15T00:26:54.682Z,7.18
2023-02-15T00:29:22.301Z,6.97
2023-02-15T00:31:50.153Z,7.40
2023-02-15T00:34:20.350Z,7.82
2023-02-15T00:36:48.180Z,7.85
2023-02-15T00:39:15.892Z,7.53
2023-02-15T00:41:43.464Z,7.60
2023-02-15T00:44:10.978Z,7.38
2023-02-15T00:46:38.293Z,7.28
2023-02-15T00:49:05.641Z,6.82
2023-02-15T00:51:33.186Z,6.97
2023-02-15T00:54:00.457Z,8.00
2023-02-15T00:56:29.458Z,7.55
2023-02-15T00:58:56.733Z,7.72
2023-02-15T01:01:24.601Z,6.85
2023-02-15T01:03:52.158Z,7.32
2023-02-15T01:06:19.327Z,7.63
2023-02-15T01:08:47.238Z,7.57
2023-02-15T01:11:23.367Z,7.13
2023-02-15T01:13:56.681Z,6.57
2023-02-15T01:16:25.599Z,6.43
2023-02-15T01:18:53.235Z,6.65
2023-02-15T01:21:22.718Z,6.90
2023-02-15T01:23:49.587Z,6.75
2023-02-15T01:26:17.432Z,6.88
2023-02-15T01:28:45.069Z,7.53
2023-02-15T01:31:18.021Z,6.82
2023-02-15T01:33:46.096Z,6.35
2023-02-15T01:36:13.340Z,7.85
2023-02-15T01:38:43.050Z,7.20
2023-02-15T01:41:25.392Z,7.55
2023-02-15T01:43:54.215Z,6.88
2023-02-15T01:46:25.772Z,7.50
2023-02-15T01:48:57.665Z,7.20
2023-02-15T01:51:28.420Z,7.35
2023-02-15T01:54:06.971Z,7.38
2023-02-15T01:56:38.077Z,7.47
2023-02-15T01:59:10.443Z,7.93
2023-02-15T02:01:38.525Z,7.07
2023-02-15T02:04:28.003Z,6.53
2023-02-15T02:06:58.726Z,7.70
2023-02-15T02:09:26.093Z,7.38
2023-02-15T02:11:55.346Z,8.57
2023-02-15T02:14:22.930Z,7.22
2023-02-15T02:17:16.338Z,8.13
2023-02-15T02:20:11.409Z,8.13
2023-02-15T02:22:56.833Z,7.35
2023-02-15T02:25:38.654Z,6.68
2023-02-15T02:28:53.388Z,6.63
2023-02-15T02:31:38.475Z,7.07
2023-02-15T02:34:06.235Z,6.53
2023-02-15T02:36:42.486Z,7.57
2023-02-15T02:39:12.402Z,7.18
2023-02-15T02:41:41.270Z,6.75
2023-02-15T02:44:17.661Z,6.38
2023-02-15T02:46:52.138Z,6.40
2023-02-15T02:49:36.618Z,7.80
2023-02-15T02:52:06.707Z,7.28
2023-02-15T02:54:36.465Z,7.15
2023-02-15T02:57:10.083Z,7.22
2023-02-15T02:59:43.008Z,6.80
2023-02-15T03:02:26.453Z,6.30
2023-02-15T03:04:59.654Z,7.30
2023-02-15T03:07:29.796Z,6.82
2023-02-15T03:10:00.146Z,6.15
2023-02-15T03:12:27.508Z,6.05
2023-02-15T03:15:03.978Z,7.05
2023-02-15T03:20:05.415Z,6.55
2023-02-15T03:22:38.328Z,6.63
2023-02-15T03:25:16.005Z,6.18
2023-02-15T03:27:48.957Z,7.03
2023-02-15T03:30:19.137Z,6.68
2023-02-15T03:32:48.703Z,6.30
2023-02-15T03:35:15.736Z,6.63
2023-02-15T03:37:54.811Z,6.72
2023-02-15T03:40:51.422Z,6.18
2023-02-15T03:43:24.359Z,6.25
2023-02-15T03:45:57.089Z,6.40
2023-02-15T03:48:47.673Z,6.60
2023-02-15T03:51:34.683Z,6.80
2023-02-15T03:54:42.629Z,6.10
2023-02-15T03:57:43.451Z,6.45
2023-02-15T04:00:43.701Z,7.15
2023-02-15T04:03:33.133Z,7.00
2023-02-15T04:06:02.776Z,7.93
2023-02-15T04:08:48.896Z,7.40
2023-02-15T04:11:16.180Z,5.68
2023-02-15T04:13:43.376Z,7.32
2023-02-15T04:16:10.720Z,7.07
2023-02-15T04:19:02.518Z,6.65
2023-02-15T04:21:49.851Z,6.68
2023-02-15T04:24:36.267Z,7.97
2023-02-15T04:27:04.195Z,7.13
2023-02-15T04:29:31.885Z,7.18
2023-02-15T04:32:02.644Z,7.55
2023-02-15T04:34:29.948Z,7.28
2023-02-15T04:36:57.275Z,6.85
2023-02-15T04:39:24.074Z,7.35
2023-02-15T04:41:51.328Z,7.32
2023-02-15T04:44:18.623Z,7.78
2023-02-15T04:46:45.856Z,6.80
2023-02-15T04:49:13.239Z,7.07
2023-02-15T04:51:40.037Z,7.43
2023-02-15T04:54:07.634Z,8.23
2023-02-15T04:56:35.884Z,6.80
2023-02-15T04:59:03.087Z,6.45
2023-02-15T05:01:30.394Z,7.25
2023-02-15T05:03:57.347Z,6.47
2023-02-15T05:06:24.645Z,6.63
2023-02-15T05:08:51.497Z,7.90
2023-02-15T05:11:18.775Z,7.65
2023-02-15T05:13:46.056Z,7.90
2023-02-15T05:16:13.388Z,8.02
2023-02-15T05:18:40.662Z,7.32
2023-02-15T05:21:07.864Z,6.82
2023-02-15T05:23:34.682Z,7.13
2023-02-15T05:26:20.787Z,7.63
2023-02-15T05:28:48.069Z,7.38
2023-02-15T05:31:20.196Z,7.70
2023-02-15T05:33:47.712Z,7.10
2023-02-15T05:36:15.337Z,7.03
2023-02-15T05:38:42.834Z,6.45
2023-02-15T05:41:11.494Z,7.35
2023-02-15T05:43:39.230Z,7.20
2023-02-15T05:46:06.679Z,7.20
2023-02-15T05:48:34.595Z,7.93
2023-02-15T05:51:08.912Z,6.00
2023-02-15T05:53:38.169Z,7.20
2023-02-15T05:56:06.805Z,6.95
2023-02-15T05:58:39.443Z,7.93
2023-02-15T06:01:14.724Z,7.03
2023-02-15T06:03:42.271Z,6.13
2023-02-15T06:06:09.731Z,7.30
2023-02-15T06:08:38.468Z,6.75
2023-02-15T06:11:06.050Z,7.05
2023-02-15T06:13:34.929Z,6.40
2023-02-15T06:16:04.252Z,7.72
2023-02-15T06:18:31.664Z,6.78
2023-02-15T06:20:58.883Z,7.55
2023-02-15T06:23:25.657Z,8.18
2023-02-15T06:25:53.555Z,7.55
2023-02-15T06:28:21.176Z,6.30
2023-02-15T06:30:48.490Z,7.75
2023-02-15T06:33:15.402Z,8.07
2023-02-15T06:35:42.759Z,7.88
2023-02-15T06:38:10.278Z,7.75
2023-02-15T06:40:37.734Z,7.07
2023-02-15T06:43:05.083Z,7.03
2023-02-15T06:45:32.068Z,7.68
2023-02-15T06:47:59.839Z,7.03
2023-02-15T06:50:27.622Z,8.48
2023-02-15T06:52:58.344Z,7.07
2023-02-15T06:55:25.741Z,7.68
2023-02-15T06:57:53.373Z,7.55
2023-02-15T07:00:20.700Z,8.50
2023-02-15T07:02:47.905Z,8.80
2023-02-15T07:05:15.078Z,8.57
2023-02-15T07:07:42.620Z,7.97
2023-02-15T07:10:10.345Z,8.70
2023-02-15T07:12:43.626Z,8.75
2023-02-15T07:15:12.388Z,7.82
2023-02-15T07:17:39.696Z,8.30
2023-02-15T07:20:11.036Z,7.10
2023-02-15T07:22:38.576Z,7.90
2023-02-15T07:25:07.996Z,7.85
2023-02-15T07:27:35.449Z,9.25
2023-02-15T07:30:02.758Z,8.75
2023-02-15T07:32:31.168Z,8.45
2023-02-15T07:34:58.803Z,9.63
2023-02-15T07:37:26.416Z,8.10
2023-02-15T07:39:53.345Z,8.98
2023-02-15T07:42:22.106Z,9.48
2023-02-15T07:44:49.421Z,9.50
2023-02-15T07:47:16.770Z,9.30
2023-02-15T07:49:43.718Z,9.25
2023-02-15T07:52:10.979Z,7.70
2023-02-15T07:54:37.825Z,8.93
2023-02-15T07:57:05.557Z,7.75
2023-02-15T07:59:32.815Z,8.23
2023-02-15T08:02:00.107Z,7.82
2023-02-15T08:04:27.334Z,8.32
2023-02-15T08:06:55.645Z,8.70
2023-02-15T08:09:23.074Z,7.97
2023-02-15T08:11:50.720Z,8.38
2023-02-15T08:14:20.215Z,7.60
2023-02-15T08:16:52.180Z,8.50
2023-02-15T08:19:30.661Z,8.73
2023-02-15T08:21:59.849Z,9.05
2023-02-15T08:24:29.703Z,9.05
2023-02-15T08:26:57.262Z,8.55
2023-02-15T08:29:27.538Z,8.93
2023-02-15T08:32:03.051Z,8.30
2023-02-15T08:34:32.399Z,8.38
2023-02-15T08:36:59.366Z,9.18
2023-02-15T08:39:26.569Z,8.80
2023-02-15T08:41:53.779Z,9.25
2023-02-15T08:44:21.500Z,8.57
2023-02-15T08:46:49.722Z,9.65
2023-02-15T08:49:25.659Z,10.00
2023-02-15T08:51:52.896Z,8.73
2023-02-15T08:54:21.880Z,8.38
2023-02-15T08:56:49.297Z,8.60
2023-02-15T08:59:21.783Z,8.00
2023-02-15T09:01:50.947Z,8.68
2023-02-15T09:04:18.329Z,9.15
2023-02-15T09:06:48.622Z,9.65
2023-02-15T09:09:16.587Z,10.40
2023-02-15T09:11:45.519Z,9.32
2023-02-15T09:14:15.645Z,9.07
2023-02-15T09:16:49.535Z,7.78
2023-02-15T09:19:18.762Z,8.93
2023-02-15T09:21:47.528Z,8.65
2023-02-15T09:24:16.971Z,8.80
2023-02-15T09:26:46.232Z,7.95
2023-02-15T09:29:14.132Z,9.13
2023-02-15T09:31:51.841Z,8.68
2023-02-15T09:34:23.533Z,8.15
2023-02-15T09:36:51.956Z,8.40
2023-02-15T09:39:30.126Z,8.40
2023-02-15T09:41:57.328Z,8.10
2023-02-15T09:44:24.510Z,8.95
2023-02-15T09:47:07.094Z,8.85
2023-02-15T09:49:45.941Z,7.22
2023-02-15T09:52:13.239Z,8.27
2023-02-15T09:54:50.592Z,7.78
2023-02-15T09:57:33.914Z,7.55
2023-02-15T10:00:18.810Z,8.65
2023-02-15T10:03:00.048Z,8.23
2023-02-15T10:05:42.435Z,8.00
2023-02-15T10:08:27.804Z,8.55
2023-02-15T10:11:32.107Z,8.23
2023-02-15T10:14:11.752Z,8.32
2023-02-15T10:16:57.568Z,8.90
2023-02-15T10:20:12.021Z,7.55
2023-02-15T10:23:06.736Z,7.95
2023-02-15T10:25:39.560Z,6.90
2023-02-15T10:28:24.253Z,7.13
2023-02-15T10:30:57.126Z,8.73
2023-02-15T10:33:42.964Z,8.73
2023-02-15T10:36:29.139Z,6.43
2023-02-15T10:39:17.850Z,7.90
2023-02-15T10:42:07.310Z,7.93
2023-02-15T10:45:12.533Z,8.98
2023-02-15T10:48:01.601Z,8.77
2023-02-15T10:50:53.714Z,9.32
2023-02-15T10:53:20.904Z,8.20
2023-02-15T10:56:15.400Z,8.48
2023-02-15T10:58:52.150Z,9.13
2023-02-15T11:01:48.365Z,9.82
2023-02-15T11:04:18.140Z,10.18
2023-02-15T11:06:52.311Z,9.55
2023-02-15T11:09:23.073Z,9.80
2023-02-15T11:11:54.994Z,10.57
2023-02-15T11:14:44.684Z,10.32
2023-02-15T11:17:18.014Z,11.70
2023-02-15T11:20:18.546Z,9.45
2023-02-15T11:22:50.060Z,10.80
2023-02-15T11:25:29.102Z,11.77
2023-02-15T11:27:56.869Z,11.85
2023-02-15T11:30:27.023Z,11.40
2023-02-15T11:32:58.155Z,11.75
2023-02-15T11:35:32.584Z,11.95
2023-02-15T11:38:17.880Z,11.10
2023-02-15T11:40:51.226Z,12.20
2023-02-15T11:43:29.322Z,11.68
2023-02-15T11:45:56.735Z,12.48
2023-02-15T11:48:24.191Z,11.95
2023-02-15T11:50:51.387Z,13.18
2023-02-15T11:53:26.321Z,13.30
2023-02-15T11:55:53.534Z,11.55
2023-02-15T11:58:55.664Z,11.55
2023-02-15T12:01:47.154Z,10.73
2023-02-15T12:04:25.035Z,10.55
2023-02-15T12:07:04.831Z,12.18
2023-02-15T12:09:39.735Z,12.30
2023-02-15T12:12:26.668Z,11.50
2023-02-15T12:14:59.785Z,12.07
2023-02-15T12:17:56.024Z,11.98
2023-02-15T12:20:31.638Z,8.82
2023-02-15T12:23:12.711Z,13.43
2023-02-15T12:25:55.349Z,11.25
2023-02-15T12:28:41.053Z,12.10
2023-02-15T12:31:25.889Z,13.07
2023-02-15T12:33:55.953Z,12.63
2023-02-15T12:36:29.291Z,11.55
2023-02-15T12:39:12.867Z,12.05
2023-02-15T12:41:46.628Z,13.40
2023-02-15T12:44:25.137Z,11.88
2023-02-15T12:47:07.265Z,12.85
2023-02-15T12:49:36.056Z,12.50
2023-02-15T12:52:25.578Z,13.10
2023-02-15T12:54:52.915Z,12.55
2023-02-15T12:57:32.639Z,14.30
2023-02-15T13:00:01.906Z,12.43
2023-02-15T13:02:37.570Z,11.02
2023-02-15T13:05:32.920Z,12.50
2023-02-15T13:08:02.973Z,11.88
2023-02-15T13:10:43.320Z,11.98
2023-02-15T13:13:12.506Z,12.77
2023-02-15T13:15:42.318Z,13.90
2023-02-15T13:18:17.379Z,13.85
2023-02-15T13:20:46.149Z,12.73
2023-02-15T13:23:29.816Z,13.23
2023-02-15T13:26:03.210Z,12.20
2023-02-15T13:28:41.955Z,13.48
2023-02-15T13:31:15.415Z,12.77
2023-02-15T13:33:49.400Z,12.20
2023-02-15T13:36:44.375Z,11.75
2023-02-15T13:39:42.598Z,12.95
2023-02-15T13:42:32.183Z,11.10
2023-02-15T13:45:23.244Z,11.50
2023-02-15T13:48:10.793Z,13.32
2023-02-15T13:50:59.248Z,13.02
2023-02-15T13:53:51.117Z,11.93
2023-02-15T13:56:39.365Z,12.63
2023-02-15T13:59:30.230Z,13.00
2023-02-15T14:02:13.056Z,12.55
2023-02-15T14:05:12.912Z,13.15
2023-02-15T14:07:51.545Z,11.50
2023-02-15T14:10:39.147Z,12.25
2023-02-15T14:13:42.730Z,13.00
2023-02-15T14:16:09.944Z,12.13
2023-02-15T14:18:39.728Z,11.88
2023-02-15T14:21:25.383Z,10.93
2023-02-15T14:24:20.146Z,12.15
2023-02-15T14:27:13.243Z,11.68
2023-02-15T14:30:00.356Z,11.52
2023-02-15T14:32:27.768Z,13.13
2023-02-15T14:34:58.261Z,12.75
2023-02-15T14:37:30.916Z,13.32
2023-02-15T14:40:25.737Z,12.20
2023-02-15T14:43:01.722Z,13.02
2023-02-15T14:48:21.539Z,11.98
2023-02-15T14:50:49.487Z,12.77
2023-02-15T14:53:16.725Z,12.75
2023-02-15T14:55:44.164Z,13.00
2023-02-15T14:58:13.678Z,12.85
2023-02-15T15:00:42.874Z,13.38
2023-02-15T15:03:27.818Z,13.55
2023-02-15T15:05:59.599Z,12.52
2023-02-15T15:08:34.235Z,12.68
2023-02-15T15:11:42.675Z,12.30
2023-02-15T15:14:12.150Z,12.82
2023-02-15T15:16:38.942Z,12.43
2023-02-15T15:19:10.827Z,13.18
2023-02-15T15:21:49.871Z,13.07
2023-02-15T15:24:38.558Z,12.75
2023-02-15T15:27:44.279Z,13.15
2023-02-15T15:30:20.351Z,12.95
2023-02-15T15:32:55.355Z,12.32
2023-02-15T15:35:36.061Z,11.90
2023-02-15T15:38:29.213Z,12.57
2023-02-15T15:41:36.236Z,13.52
2023-02-15T15:44:38.796Z,12.85
2023-02-15T15:47:15.271Z,13.93
2023-02-15T15:49:42.815Z,13.27
2023-02-15T15:52:21.746Z,13.98
2023-02-15T15:54:54.424Z,13.95
2023-02-15T15:57:30.926Z,13.27
2023-02-15T16:00:00.700Z,13.70
2023-02-15T16:02:28.132Z,12.93
2023-02-15T16:04:55.089Z,14.27
2023-02-15T16:07:25.971Z,13.10
2023-02-15T16:09:55.885Z,14.73
2023-02-15T16:12:23.876Z,13.73
2023-02-15T16:14:53.885Z,16.33
2023-02-15T16:17:32.700Z,18.08
2023-02-15T16:20:15.109Z,15.88
2023-02-15T16:22:42.498Z,16.42
2023-02-15T16:25:15.168Z,15.10
2023-02-15T16:27:46.414Z,14.38
2023-02-15T16:30:22.345Z,14.20
2023-02-15T16:35:19.827Z,13.90
2023-02-15T16:37:47.197Z,13.80
2023-02-15T16:40:33.933Z,14.88
2023-02-15T16:43:08.541Z,14.30
2023-02-15T16:45:38.683Z,14.75
2023-02-15T16:48:12.905Z,13.20
2023-02-15T16:50:40.554Z,14.52
2023-02-15T16:53:16.091Z,13.82
2023-02-15T16:55:43.794Z,13.85
2023-02-15T16:58:26.202Z,14.35
2023-02-15T17:00:57.733Z,15.63
2023-02-15T17:03:26.104Z,14.45
2023-02-15T17:05:56.311Z,13.80
2023-02-15T17:08:32.585Z,15.25
2023-02-15T17:10:59.395Z,14.75
2023-02-15T17:13:27.982Z,13.98
2023-02-15T17:16:01.215Z,12.68
2023-02-15T17:18:28.644Z,15.38
2023-02-15T17:20:59.812Z,15.10
2023-02-15T17:23:34.363Z,14.50
2023-02-15T17:26:12.148Z,15.55
2023-02-15T17:28:45.274Z,13.75
2023-02-15T17:31:15.839Z,14.93
2023-02-15T17:33:43.211Z,14.73
2023-02-15T17:36:22.813Z,14.43
2023-02-15T17:38:58.764Z,13.40
2023-02-15T17:43:53.229Z,13.27
2023-02-15T17:46:23.803Z,15.15
2023-02-15T17:48:52.824Z,16.45
2023-02-15T17:51:20.793Z,14.32
2023-02-15T17:54:06.763Z,15.85
2023-02-15T17:56:34.916Z,14.55
2023-02-15T17:59:02.240Z,17.70
2023-02-15T18:01:48.204Z,16.60
2023-02-15T18:04:34.704Z,15.52
2023-02-15T18:07:20.307Z,16.00
2023-02-15T18:10:06.105Z,13.98
2023-02-15T18:12:36.703Z,13.63
2023-02-15T18:15:05.070Z,15.00
2023-02-15T18:17:40.679Z,14.77
2023-02-15T18:20:24.266Z,15.55
2023-02-15T18:22:52.467Z,14.23
2023-02-15T18:25:21.920Z,13.60
2023-02-15T18:27:49.474Z,14.77
2023-02-15T18:30:19.753Z,15.43
2023-02-15T18:32:48.548Z,16.75
2023-02-15T18:35:17.785Z,14.98
2023-02-15T18:37:45.156Z,14.93
2023-02-15T18:40:21.077Z,15.00
2023-02-15T18:42:49.645Z,14.98
2023-02-15T18:45:28.732Z,15.07
2023-02-15T18:47:56.180Z,15.07
2023-02-15T18:50:25.672Z,16.20
2023-02-15T18:52:53.166Z,15.07
2023-02-15T18:55:20.386Z,13.18
2023-02-15T18:57:48.849Z,14.02
2023-02-15T19:00:22.125Z,14.50
2023-02-15T19:02:49.375Z,13.45
2023-02-15T19:05:18.076Z,13.70
2023-02-15T19:07:48.426Z,14.15
2023-02-15T19:10:19.637Z,14.80
2023-02-15T19:12:48.140Z,14.10
2023-02-15T19:15:18.091Z,14.48
2023-02-15T19:17:45.469Z,15.07
2023-02-15T19:20:18.526Z,14.85
2023-02-15T19:22:47.966Z,14.35
2023-02-15T19:25:23.932Z,15.43
2023-02-15T19:30:22.845Z,13.23
2023-02-15T19:32:50.188Z,13.50
2023-02-15T19:35:22.587Z,16.23
2023-02-15T19:37:53.525Z,16.17
2023-02-15T19:40:31.850Z,16.17
2023-02-15T19:42:59.346Z,13.63
2023-02-15T19:45:28.690Z,15.40
2023-02-15T19:47:56.025Z,16.42
2023-02-15T19:50:26.100Z,14.55
2023-02-15T19:52:53.608Z,16.20
2023-02-15T19:55:30.679Z,15.50
2023-02-15T19:57:59.362Z,15.27
2023-02-15T20:00:31.945Z,16.45
2023-02-15T20:02:59.948Z,15.57
2023-02-15T20:05:29.563Z,16.83
2023-02-15T20:07:57.077Z,15.05
2023-02-15T20:10:29.176Z,16.42
2023-02-15T20:12:56.672Z,15.55
2023-02-15T20:15:29.738Z,16.63
2023-02-15T20:17:58.187Z,17.35
2023-02-15T20:20:40.366Z,15.55
2023-02-15T20:23:17.413Z,15.90
2023-02-15T20:25:44.397Z,15.65
2023-02-15T20:28:25.867Z,15.65
2023-02-15T20:30:52.961Z,15.90
2023-02-15T20:33:21.052Z,16.73
2023-02-15T20:35:48.992Z,17.45
2023-02-15T20:38:29.843Z,15.68
2023-02-15T20:41:17.186Z,17.65
2023-02-15T20:43:44.400Z,15.57
2023-02-15T20:46:11.700Z,16.60
2023-02-15T20:48:39.045Z,16.73
2023-02-15T20:51:06.527Z,16.77
2023-02-15T20:53:33.796Z,16.52
2023-02-15T20:56:01.187Z,16.85
2023-02-15T20:58:30.286Z,16.30
2023-02-15T21:00:58.921Z,15.70
2023-02-15T21:03:30.882Z,15.63
2023-02-15T21:05:59.009Z,16.77
2023-02-15T21:08:26.523Z,16.40
2023-02-15T21:10:54.629Z,15.43
2023-02-15T21:13:23.514Z,16.27
2023-02-15T21:15:51.862Z,15.15
2023-02-15T21:18:34.456Z,18.42
2023-02-15T21:21:04.564Z,15.88
2023-02-15T21:23:40.785Z,15.85
2023-02-15T21:26:21.843Z,16.88
2023-02-15T21:28:50.568Z,16.63
2023-02-15T21:31:23.979Z,15.98
2023-02-15T21:33:51.307Z,17.48
2023-02-15T21:36:27.905Z,16.60
2023-02-15T21:38:55.266Z,16.63
2023-02-15T21:41:42.196Z,17.27
2023-02-15T21:44:39.295Z,16.35
2023-02-15T21:47:35.860Z,16.35
2023-02-15T21:50:23.163Z,15.77
2023-02-15T21:52:50.354Z,16.38
2023-02-15T21:55:17.813Z,15.20
2023-02-15T21:57:45.165Z,16.33
2023-02-15T22:00:31.058Z,16.65
2023-02-15T22:02:59.478Z,16.33
2023-02-15T22:05:31.539Z,14.82
2023-02-15T22:07:58.489Z,15.13
2023-02-15T22:10:34.446Z,15.88
2023-02-15T22:15:35.655Z,13.95
2023-02-15T22:18:03.155Z,14.73
2023-02-15T22:20:30.250Z,14.00
2023-02-15T22:22:57.546Z,13.30
2023-02-15T22:25:26.615Z,12.50
2023-02-15T22:27:54.800Z,13.63
2023-02-15T22:30:33.915Z,14.02
2023-02-15T22:33:01.341Z,12.88
2023-02-15T22:35:36.783Z,13.65
2023-02-15T22:38:03.997Z,14.88
2023-02-15T22:40:33.407Z,13.35
2023-02-15T22:43:02.688Z,14.60
2023-02-15T22:45:31.858Z,12.85
2023-02-15T22:48:00.259Z,13.13
2023-02-15T22:50:32.143Z,12.73
2023-02-15T22:53:03.534Z,14.30
2023-02-15T22:55:37.084Z,13.68
2023-02-15T22:58:04.705Z,13.20
2023-02-15T23:00:38.241Z,13.30
2023-02-15T23:03:17.611Z,12.70
2023-02-15T23:05:45.358Z,13.20
2023-02-15T23:08:12.602Z,13.90
2023-02-15T23:10:41.307Z,13.68
2023-02-15T23:13:43.437Z,13.10
2023-02-15T23:16:14.363Z,13.93
2023-02-15T23:18:46.557Z,13.13
2023-02-15T23:21:26.274Z,13.25
2023-02-15T23:23:57.375Z,12.30
2023-02-15T23:26:28.768Z,11.68
2023-02-15T23:29:00.887Z,12.88
2023-02-15T23:31:33.822Z,13.32
2023-02-15T23:34:02.693Z,13.07
2023-02-15T23:36:38.403Z,12.75
2023-02-15T23:39:37.499Z,12.68
2023-02-15T23:42:09.981Z,10.73
2023-02-15T23:44:37.506Z,12.70
2023-02-15T23:47:04.858Z,11.80
2023-02-15T23:49:31.663Z,12.23
2023-02-15T23:51:59.119Z,11.90
2023-02-15T23:54:26.481Z,13.00
2023-02-15T23:56:59.658Z,13.23
2023-02-15T23:59:31.327Z,12.00
